地図

経路データ

SID SEASON NUMBER BASIN SUBBASIN NAME ISO_TIME NATURE LAT LON WMO_WIND WMO_PRES WMO_AGENCY TRACK_TYPE DIST2LAND LANDFALL IFLAG USA_AGENCY USA_ATCF_ID USA_LAT USA_LON USA_RECORD USA_STATUS USA_WIND USA_PRES USA_SSHS USA_R34_NE USA_R34_SE USA_R34_SW USA_R34_NW USA_R50_NE USA_R50_SE USA_R50_SW USA_R50_NW USA_R64_NE USA_R64_SE USA_R64_SW USA_R64_NW USA_POCI USA_ROCI USA_RMW USA_EYE TOKYO_LAT TOKYO_LON TOKYO_GRADE TOKYO_WIND TOKYO_PRES TOKYO_R50_DIR TOKYO_R50_LONG TOKYO_R50_SHORT TOKYO_R30_DIR TOKYO_R30_LONG TOKYO_R30_SHORT TOKYO_LAND CMA_LAT CMA_LON CMA_CAT CMA_WIND CMA_PRES HKO_LAT HKO_LON HKO_CAT HKO_WIND HKO_PRES NEWDELHI_LAT NEWDELHI_LON NEWDELHI_GRADE NEWDELHI_WIND NEWDELHI_PRES NEWDELHI_CI NEWDELHI_DP NEWDELHI_POCI REUNION_LAT REUNION_LON REUNION_TYPE REUNION_WIND REUNION_PRES REUNION_TNUM REUNION_CI REUNION_RMW REUNION_R34_NE REUNION_R34_SE REUNION_R34_SW REUNION_R34_NW REUNION_R50_NE REUNION_R50_SE REUNION_R50_SW REUNION_R50_NW REUNION_R64_NE REUNION_R64_SE REUNION_R64_SW REUNION_R64_NW BOM_LAT BOM_LON BOM_TYPE BOM_WIND BOM_PRES BOM_TNUM BOM_CI BOM_RMW BOM_R34_NE BOM_R34_SE BOM_R34_SW BOM_R34_NW BOM_R50_NE BOM_R50_SE BOM_R50_SW BOM_R50_NW BOM_R64_NE BOM_R64_SE BOM_R64_SW BOM_R64_NW BOM_ROCI BOM_POCI BOM_EYE BOM_POS_METHOD BOM_PRES_METHOD NADI_LAT NADI_LON NADI_CAT NADI_WIND NADI_PRES WELLINGTON_LAT WELLINGTON_LON WELLINGTON_WIND WELLINGTON_PRES DS824_LAT DS824_LON DS824_STAGE DS824_WIND DS824_PRES TD9636_LAT TD9636_LON TD9636_STAGE TD9636_WIND TD9636_PRES TD9635_LAT TD9635_LON TD9635_WIND TD9635_PRES TD9635_ROCI NEUMANN_LAT NEUMANN_LON NEUMANN_CLASS NEUMANN_WIND NEUMANN_PRES MLC_LAT MLC_LON MLC_CLASS MLC_WIND MLC_PRES USA_GUST BOM_GUST BOM_GUST_PER REUNION_GUST REUNION_GUST_PER USA_SEAHGT USA_SEARAD_NE USA_SEARAD_SE USA_SEARAD_SW USA_SEARAD_NW STORM_SPEED STORM_DIR
1937276N14074 1937 54 NI AS NOT_NAMED 1937-10-03 00:00:00 TS 14.4000 74.3000 main 10 10 _________O____ -1 14.4000 74.3000 TC 30 8 283
1937276N14074 1937 54 NI AS NOT_NAMED 1937-10-03 03:00:00 TS 14.4935 73.8984 main 39 39 _________PO___ -1 14.5403 73.6976 TC 30 14.4000 74.3000 1 10 285
1937276N14074 1937 54 NI AS NOT_NAMED 1937-10-03 06:00:00 TS 14.6468 73.3407 main 85 78 _________OP___ -1 14.7000 73.1000 TC 30 14.5669 73.7018 1 11 287
1937276N14074 1937 54 NI AS NOT_NAMED 1937-10-03 09:00:00 TS 14.8256 72.7739 main 122 122 _________PP___ -1 14.8925 72.5200 TC 30 14.7364 73.1125 1 11 289
1937276N14074 1937 54 NI AS NOT_NAMED 1937-10-03 12:00:00 TS 15.0064 72.2710 main 164 164 _________OP___ -1 15.1000 72.0000 TC 30 14.9127 72.5419 1 10 291
1937276N14074 1937 54 NI AS NOT_NAMED 1937-10-03 15:00:00 TS 15.1925 71.7737 main 208 208 _________PO___ -1 15.2849 71.5474 TC 30 15.1000 72.0000 1 10 294
1937276N14074 1937 54 NI AS NOT_NAMED 1937-10-03 18:00:00 TS 15.4017 71.3520 main 237 237 _________OP___ -1 15.5000 71.2000 TC 30 15.3035 71.5040 1 9 301
1937276N14074 1937 54 NI AS NOT_NAMED 1937-10-03 21:00:00 TS 15.6433 70.9984 main 265 261 _________PP___ -1 15.7549 70.8953 TC 30 15.5316 71.1016 1 7 317
1937276N14074 1937 54 NI AS NOT_NAMED 1937-10-04 00:00:00 TS 15.9470 70.8241 main 275 257 _________OP___ -1 16.1000 70.8000 TC 30 15.7939 70.8483 1 7 352
1937276N14074 1937 54 NI AS NOT_NAMED 1937-10-04 03:00:00 TS 16.3499 70.8936 main 257 220 _________PO___ -1 16.5999 70.9872 TC 30 16.1000 70.8000 1 9 23
1937276N14074 1937 54 NI AS NOT_NAMED 1937-10-04 06:00:00 TS 16.7865 71.1935 main 220 168 _________OP___ -1 17.1000 71.4000 TC 30 16.4730 70.9870 1 11 42
1937276N14074 1937 54 NI AS NOT_NAMED 1937-10-04 09:00:00 TS 17.1575 71.6419 main 165 96 _________PP___ -1 17.4300 71.9052 TC 30 16.8849 71.3785 1 12 53
1937276N14074 1937 54 NI AS NOT_NAMED 1937-10-04 12:00:00 TS 17.5022 72.2030 main 96 30 _________OP___ -1 17.7000 72.5000 TC 30 17.3043 71.9060 1 13 58
1937276N14074 1937 54 NI AS NOT_NAMED 1937-10-04 15:00:00 TS 17.8499 72.7963 main 30 0 _________PO___ -1 17.9999 73.0927 TC 30 17.7000 72.5000 1 13 59
1937276N14074 1937 54 NI AS NOT_NAMED 1937-10-04 18:00:00 TS 18.1537 73.3515 main 0 0 _________OP___ -1 18.3000 73.7000 TC 30 18.0074 73.0030 1 12 61
1937276N14074 1937 54 NI AS NOT_NAMED 1937-10-04 21:00:00 TS 18.4375 73.9082 main 0 0 _________PP___ -1 18.5843 74.2557 TC 30 18.2907 73.5607 1 13 63
1937276N14074 1937 54 NI AS NOT_NAMED 1937-10-05 00:00:00 TS 18.7393 74.5440 main 0 0 _________OP___ -1 18.9000 74.9000 TC 30 18.5787 74.1879 1 15 64
1937276N14074 1937 54 NI AS NOT_NAMED 1937-10-05 03:00:00 TS 19.0888 75.3276 main 0 0 _________PO___ -1 19.2777 75.7551 TC 30 18.9000 74.9000 1 17 65
1937276N14074 1937 54 NI AS NOT_NAMED 1937-10-05 06:00:00 TS 19.4826 76.2073 main 0 0 _________OP___ -1 19.7000 76.7000 TC 30 19.2653 75.7147 1 19 64
1937276N14074 1937 54 NI AS NOT_NAMED 1937-10-05 09:00:00 TS 19.8976 77.1062 main 0 0 _________PP___ -1 20.1271 77.6007 TC 30 19.6682 76.6118 1 19 63
1937276N14074 1937 54 NI BB NOT_NAMED 1937-10-05 12:00:00 TS 20.3559 78.0265 main 0 0 _________OP___ -1 20.6000 78.5000 TC 30 20.1119 77.5530 1 20 61
1937276N14074 1937 54 NI BB NOT_NAMED 1937-10-05 15:00:00 TS 20.8635 78.9503 main 0 0 _________PO___ -1 21.1270 79.4006 TC 30 20.6000 78.5000 1 19 58
1937276N14074 1937 54 NI BB NOT_NAMED 1937-10-05 18:00:00 TS 21.3767 79.7987 main 0 0 _________OP___ -1 21.7000 80.3000 TC 30 21.1343 79.4227 1 19 56
1937276N14074 1937 54 NI BB NOT_NAMED 1937-10-05 21:00:00 TS 21.9412 80.6735 main 0 0 _________PP___ -1 22.2960 81.1984 TC 30 21.7047 80.3235 1 19 55
1937276N14074 1937 54 NI BB NOT_NAMED 1937-10-06 00:00:00 TS 22.4986 81.5085 main 0 0 _________OP___ -1 22.9000 82.1000 TC 30 22.2979 81.2127 1 16 54
1937276N14074 1937 54 NI BB NOT_NAMED 1937-10-06 03:00:00 NR 22.9000 82.1000 main 0 __________O___ -1 TC 22.9000 82.1000 1 14 54

IBTrACS Databaseについて

本データベースは、米国NOAAが公開する1842年以降の世界の熱帯低気圧のベストトラックデータアーカイブInternational Best Track Archive for Climate Stewardship (IBTrACS)を、ウェブで閲覧しやすい形式に変換したものです。

最終更新日:2021-12-06